Terminal Aerodrome Forecast
Issued by NWS

Home | Current Version | Previous Version | Text Only | Print | Product List | Glossary On
Versions: 1 2 3 4 5 6 7 8 9 10 11 12 13 14 15 16 17
000
FTUS43 KMQT 051735
TAFCMX
TAF
KCMX 051735Z 0518/0618 26012G18KT P6SM VCSH OVC025
     FM052200 25009KT P6SM SCT025
     FM060000 24009KT P6SM FEW150
     FM061000 22010KT P6SM BKN120 WS015/25035KT
     FM061500 26014G20KT P6SM BKN030=

USA.gov is the U.S. government's official web portal to all federal, state and local government web resources and services.